createdAt,value
2022-12-20T00:01:34.082Z,11.77
2022-12-20T00:04:03.940Z,12.60
2022-12-20T00:06:31.515Z,12.68
2022-12-20T00:09:01.100Z,13.10
2022-12-20T00:11:29.252Z,12.33
2022-12-20T00:13:57.308Z,12.40
2022-12-20T00:16:29.758Z,11.90
2022-12-20T00:18:59.401Z,11.43
2022-12-20T00:21:27.140Z,12.77
2022-12-20T00:23:55.099Z,12.07
2022-12-20T00:26:28.217Z,12.27
2022-12-20T00:28:55.657Z,12.35
2022-12-20T00:31:24.069Z,12.27
2022-12-20T00:33:53.482Z,13.38
2022-12-20T00:36:22.156Z,12.27
2022-12-20T00:38:51.541Z,13.23
2022-12-20T00:41:21.725Z,12.05
2022-12-20T00:43:49.733Z,12.77
2022-12-20T00:46:18.576Z,11.88
2022-12-20T00:48:45.768Z,12.10
2022-12-20T00:51:22.922Z,12.73
2022-12-20T00:53:50.146Z,11.63
2022-12-20T00:56:17.560Z,12.40
2022-12-20T00:58:45.375Z,12.70
2022-12-20T01:01:22.801Z,12.75
2022-12-20T01:03:50.860Z,11.70
2022-12-20T01:06:18.909Z,13.60
2022-12-20T01:08:46.346Z,11.93
2022-12-20T01:11:20.606Z,12.05
2022-12-20T01:13:50.406Z,12.27
2022-12-20T01:16:22.610Z,11.98
2022-12-20T01:18:50.324Z,12.35
2022-12-20T01:21:19.739Z,13.02
2022-12-20T01:23:46.929Z,13.43
2022-12-20T01:26:17.412Z,11.60
2022-12-20T01:31:18.274Z,13.07
2022-12-20T01:33:47.184Z,13.18
2022-12-20T01:36:18.484Z,11.65
2022-12-20T01:38:45.575Z,12.85
2022-12-20T01:41:18.879Z,12.25
2022-12-20T01:43:51.160Z,12.35
2022-12-20T01:46:19.500Z,12.02
2022-12-20T01:49:11.028Z,12.18
2022-12-20T01:51:43.864Z,11.68
2022-12-20T01:54:18.836Z,11.88
2022-12-20T01:56:51.684Z,11.50
2022-12-20T01:59:19.467Z,13.00
2022-12-20T02:01:47.031Z,12.60
2022-12-20T02:04:14.291Z,11.13
2022-12-20T02:06:41.359Z,11.57
2022-12-20T02:09:09.243Z,12.10
2022-12-20T02:12:04.138Z,12.65
2022-12-20T02:14:59.393Z,11.77
2022-12-20T02:18:06.225Z,11.73
2022-12-20T02:21:13.017Z,11.80
2022-12-20T02:24:12.504Z,11.20
2022-12-20T02:27:15.685Z,11.32
2022-12-20T02:30:07.327Z,11.25
2022-12-20T02:33:00.231Z,13.32
2022-12-20T02:35:31.551Z,11.30
2022-12-20T02:38:02.338Z,11.80
2022-12-20T02:40:42.573Z,11.38
2022-12-20T02:43:31.255Z,11.43
2022-12-20T02:46:00.478Z,11.18
2022-12-20T02:48:31.605Z,11.25
2022-12-20T02:51:00.504Z,11.40
2022-12-20T02:53:29.377Z,11.68
2022-12-20T02:56:13.933Z,11.63
2022-12-20T02:59:08.729Z,10.98
2022-12-20T03:01:48.069Z,11.32
2022-12-20T03:04:15.994Z,10.80
2022-12-20T03:07:08.201Z,11.63
2022-12-20T03:09:39.679Z,11.57
2022-12-20T03:12:08.375Z,11.32
2022-12-20T03:14:35.604Z,11.07
2022-12-20T03:17:02.944Z,11.00
2022-12-20T03:19:30.229Z,10.00
2022-12-20T03:21:57.565Z,10.48
2022-12-20T03:24:24.908Z,11.35
2022-12-20T03:26:51.993Z,11.60
2022-12-20T03:29:19.109Z,12.00
2022-12-20T03:31:46.152Z,10.90
2022-12-20T03:34:13.243Z,11.00
2022-12-20T03:36:40.315Z,11.40
2022-12-20T03:39:07.495Z,10.77
2022-12-20T03:41:34.616Z,10.82
2022-12-20T03:44:01.703Z,10.57
2022-12-20T03:46:29.000Z,10.85
2022-12-20T03:48:56.193Z,10.15
2022-12-20T03:51:23.301Z,11.07
2022-12-20T03:53:50.310Z,10.98
2022-12-20T03:56:17.324Z,9.68
2022-12-20T03:58:44.379Z,10.75
2022-12-20T04:01:23.447Z,9.80
2022-12-20T04:03:51.201Z,10.18
2022-12-20T04:06:18.996Z,10.40
2022-12-20T04:08:46.377Z,9.40
2022-12-20T04:11:16.493Z,10.02
2022-12-20T04:13:48.848Z,10.35
2022-12-20T04:16:18.412Z,10.18
2022-12-20T04:18:45.543Z,9.27
2022-12-20T04:21:13.115Z,9.85
2022-12-20T04:23:42.248Z,9.93
2022-12-20T04:26:10.585Z,9.20
2022-12-20T04:28:37.623Z,9.77
2022-12-20T04:31:05.062Z,9.60
2022-12-20T04:33:32.494Z,9.88
2022-12-20T04:35:59.625Z,9.77
2022-12-20T04:38:26.987Z,10.20
2022-12-20T04:40:55.511Z,9.80
2022-12-20T04:43:24.336Z,9.05
2022-12-20T04:45:53.837Z,9.68
2022-12-20T04:48:54.962Z,9.02
2022-12-20T04:51:07.971Z,9.23
2022-12-20T04:53:48.177Z,10.40
2022-12-20T04:56:18.496Z,8.95
2022-12-20T04:58:46.293Z,10.10
2022-12-20T05:01:13.516Z,9.60
2022-12-20T05:03:41.264Z,8.77
2022-12-20T05:06:08.892Z,9.20
2022-12-20T05:08:38.115Z,9.18
2022-12-20T05:11:06.189Z,9.32
2022-12-20T05:13:34.023Z,9.73
2022-12-20T05:16:01.906Z,8.55
2022-12-20T05:18:29.151Z,9.80
2022-12-20T05:21:18.512Z,8.65
2022-12-20T05:24:06.357Z,9.15
2022-12-20T05:26:36.684Z,8.68
2022-12-20T05:29:04.575Z,8.88
2022-12-20T05:31:32.082Z,8.38
2022-12-20T05:33:59.346Z,8.65
2022-12-20T05:36:26.391Z,9.90
2022-12-20T05:38:56.806Z,10.05
2022-12-20T05:41:29.361Z,10.95
2022-12-20T05:43:56.411Z,10.23
2022-12-20T05:46:23.497Z,10.05
2022-12-20T05:48:50.651Z,10.23
2022-12-20T05:51:17.736Z,11.18
2022-12-20T05:53:44.905Z,10.60
2022-12-20T05:56:12.289Z,9.20
2022-12-20T05:58:40.373Z,9.85
2022-12-20T06:01:09.159Z,9.48
2022-12-20T06:03:36.773Z,9.82
2022-12-20T06:06:10.198Z,11.13
2022-12-20T06:08:37.386Z,9.90
2022-12-20T06:11:05.302Z,10.90
2022-12-20T06:13:32.397Z,10.32
2022-12-20T06:16:00.784Z,10.43
2022-12-20T06:18:28.028Z,11.07
2022-12-20T06:20:55.662Z,9.88
2022-12-20T06:23:23.555Z,10.27
2022-12-20T06:25:51.409Z,10.70
2022-12-20T06:28:22.079Z,10.00
2022-12-20T06:30:58.874Z,10.18
2022-12-20T06:33:26.084Z,10.52
2022-12-20T06:35:54.244Z,11.77
2022-12-20T06:38:21.388Z,10.48
2022-12-20T06:40:48.529Z,10.07
2022-12-20T06:43:15.691Z,10.63
2022-12-20T06:45:43.319Z,11.27
2022-12-20T06:48:11.041Z,10.90
2022-12-20T06:50:55.325Z,11.18
2022-12-20T06:53:23.111Z,10.70
2022-12-20T06:55:51.184Z,12.07
2022-12-20T06:58:19.809Z,11.07
2022-12-20T07:00:47.424Z,11.38
2022-12-20T07:03:15.299Z,11.50
2022-12-20T07:05:42.617Z,11.05
2022-12-20T07:08:09.742Z,11.80
2022-12-20T07:10:38.530Z,11.57
2022-12-20T07:13:05.624Z,11.20
2022-12-20T07:15:33.041Z,11.55
2022-12-20T07:18:00.264Z,11.90
2022-12-20T07:20:27.509Z,12.50
2022-12-20T07:22:55.624Z,11.70
2022-12-20T07:25:23.031Z,11.45
2022-12-20T07:27:50.514Z,12.95
2022-12-20T07:30:20.114Z,12.27
2022-12-20T07:32:49.308Z,13.07
2022-12-20T07:35:16.800Z,12.65
2022-12-20T07:37:45.112Z,13.20
2022-12-20T07:40:12.787Z,13.50
2022-12-20T07:42:47.945Z,12.68
2022-12-20T07:45:16.404Z,12.75
2022-12-20T07:47:44.187Z,12.98
2022-12-20T07:50:12.063Z,12.82
2022-12-20T07:52:41.746Z,12.85
2022-12-20T07:55:10.512Z,12.50
2022-12-20T07:57:49.372Z,12.23
2022-12-20T08:00:18.920Z,14.27
2022-12-20T08:02:54.067Z,13.38
2022-12-20T08:05:23.117Z,13.60
2022-12-20T08:07:58.488Z,14.25
2022-12-20T08:10:27.357Z,13.82
2022-12-20T08:12:55.509Z,14.40
2022-12-20T08:15:23.566Z,14.38
2022-12-20T08:17:51.090Z,14.52
2022-12-20T08:20:18.499Z,14.23
2022-12-20T08:22:45.766Z,15.40
2022-12-20T08:25:13.242Z,14.35
2022-12-20T08:27:41.544Z,14.13
2022-12-20T08:30:10.629Z,14.05
2022-12-20T08:32:38.297Z,14.02
2022-12-20T08:35:05.853Z,15.18
2022-12-20T08:37:32.985Z,14.27
2022-12-20T08:40:01.061Z,13.95
2022-12-20T08:42:28.756Z,14.23
2022-12-20T08:44:56.362Z,14.77
2022-12-20T08:47:23.593Z,14.63
2022-12-20T08:49:50.925Z,13.60
2022-12-20T08:52:19.010Z,13.13
2022-12-20T08:54:46.366Z,13.80
2022-12-20T08:57:13.902Z,14.55
2022-12-20T08:59:41.013Z,13.65
2022-12-20T09:02:08.418Z,14.27
2022-12-20T09:04:35.811Z,14.38
2022-12-20T09:07:03.006Z,13.38
2022-12-20T09:09:30.217Z,13.88
2022-12-20T09:11:57.550Z,14.73
2022-12-20T09:14:24.647Z,13.20
2022-12-20T09:16:52.120Z,14.18
2022-12-20T09:19:19.302Z,14.18
2022-12-20T09:21:46.369Z,14.95
2022-12-20T09:24:13.446Z,14.13
2022-12-20T09:26:41.204Z,13.73
2022-12-20T09:29:08.590Z,13.85
2022-12-20T09:31:37.078Z,14.90
2022-12-20T09:34:04.334Z,14.85
2022-12-20T09:36:31.698Z,15.02
2022-12-20T09:38:59.037Z,15.38
2022-12-20T09:41:41.333Z,14.38
2022-12-20T09:44:20.455Z,13.88
2022-12-20T09:47:04.971Z,14.32
2022-12-20T09:49:40.260Z,15.02
2022-12-20T09:52:47.501Z,14.13
2022-12-20T09:55:34.762Z,14.15
2022-12-20T09:58:41.527Z,15.15
2022-12-20T10:01:24.372Z,14.57
2022-12-20T10:03:53.201Z,14.57
2022-12-20T10:06:48.217Z,14.25
2022-12-20T10:09:55.099Z,14.30
2022-12-20T10:12:46.827Z,14.15
2022-12-20T10:15:21.602Z,15.65
2022-12-20T10:18:21.638Z,14.20
2022-12-20T10:21:21.393Z,14.35
2022-12-20T10:24:12.259Z,14.98
2022-12-20T10:26:39.418Z,14.52
2022-12-20T10:29:06.495Z,14.35
2022-12-20T10:31:36.116Z,14.18
2022-12-20T10:34:06.257Z,15.00
2022-12-20T10:36:36.163Z,14.32
2022-12-20T10:39:11.034Z,15.20
2022-12-20T10:41:50.171Z,14.10
2022-12-20T10:44:25.317Z,15.10
2022-12-20T10:46:56.826Z,14.80
2022-12-20T10:49:41.188Z,14.70
2022-12-20T10:52:14.757Z,14.35
2022-12-20T10:54:43.958Z,15.07
2022-12-20T10:57:23.495Z,14.82
2022-12-20T10:59:54.313Z,14.23
2022-12-20T11:02:41.181Z,14.13
2022-12-20T11:05:24.364Z,14.23
2022-12-20T11:10:46.222Z,14.88
2022-12-20T11:13:23.814Z,16.08
2022-12-20T11:15:55.534Z,16.10
2022-12-20T11:18:41.939Z,16.08
2022-12-20T11:21:43.128Z,15.10
2022-12-20T11:24:31.608Z,15.65
2022-12-20T11:27:25.141Z,14.75
2022-12-20T11:30:14.599Z,16.33
2022-12-20T11:33:11.182Z,15.57
2022-12-20T11:36:03.407Z,16.00
2022-12-20T11:38:41.822Z,15.15
2022-12-20T11:41:36.167Z,16.48
2022-12-20T11:44:28.152Z,15.95
2022-12-20T11:47:34.964Z,17.17
2022-12-20T11:50:41.973Z,16.70
2022-12-20T11:53:45.930Z,16.58
2022-12-20T11:56:21.284Z,17.23
2022-12-20T11:58:57.832Z,16.95
2022-12-20T12:01:31.724Z,16.85
2022-12-20T12:04:18.444Z,16.70
2022-12-20T12:06:56.511Z,16.45
2022-12-20T12:09:37.175Z,15.88
2022-12-20T12:12:11.881Z,17.35
2022-12-20T12:14:58.817Z,17.55
2022-12-20T12:17:48.159Z,17.48
2022-12-20T12:20:29.288Z,16.40
2022-12-20T12:23:05.927Z,16.60
2022-12-20T12:25:33.493Z,16.73
2022-12-20T12:28:00.851Z,18.08
2022-12-20T12:30:36.081Z,15.93
2022-12-20T12:33:24.356Z,16.20
2022-12-20T12:36:31.732Z,17.77
2022-12-20T12:39:24.871Z,17.30
2022-12-20T12:42:31.666Z,16.70
2022-12-20T12:45:20.079Z,15.93
2022-12-20T12:47:58.752Z,15.93
2022-12-20T12:50:33.022Z,17.60
2022-12-20T12:53:09.080Z,17.50
2022-12-20T12:55:43.191Z,17.05
2022-12-20T12:58:34.041Z,16.95
2022-12-20T13:01:11.652Z,17.17
2022-12-20T13:03:46.375Z,17.27
2022-12-20T13:06:44.764Z,17.00
2022-12-20T13:09:38.630Z,17.10
2022-12-20T13:12:45.369Z,17.80
2022-12-20T13:15:50.607Z,18.33
2022-12-20T13:18:25.723Z,16.58
2022-12-20T13:21:17.768Z,18.10
2022-12-20T13:23:44.905Z,16.75
2022-12-20T13:26:51.742Z,17.83
2022-12-20T13:29:25.222Z,17.10
2022-12-20T13:31:54.777Z,16.65
2022-12-20T13:34:55.763Z,18.08
2022-12-20T13:37:29.508Z,18.02
2022-12-20T13:39:57.409Z,17.75
2022-12-20T13:42:37.648Z,18.08
2022-12-20T13:45:07.223Z,17.70
2022-12-20T13:47:52.512Z,18.80
2022-12-20T13:50:26.084Z,17.80
2022-12-20T13:52:54.898Z,17.38
2022-12-20T13:55:37.797Z,18.55
2022-12-20T13:58:21.403Z,17.83
2022-12-20T14:00:50.233Z,17.92
2022-12-20T14:03:25.987Z,18.13
2022-12-20T14:05:59.270Z,18.85
2022-12-20T14:08:30.781Z,16.98
2022-12-20T14:11:08.984Z,17.67
2022-12-20T14:13:36.751Z,19.23
2022-12-20T14:16:19.138Z,18.52
2022-12-20T14:19:06.140Z,16.40
2022-12-20T14:21:40.339Z,18.63
2022-12-20T14:24:17.392Z,18.33
2022-12-20T14:26:51.612Z,18.83
2022-12-20T14:29:30.118Z,17.40
2022-12-20T14:31:57.420Z,18.42
2022-12-20T14:34:30.171Z,18.08
2022-12-20T14:37:32.342Z,18.35
2022-12-20T14:40:18.530Z,18.92
2022-12-20T14:42:46.139Z,18.70
2022-12-20T14:45:26.889Z,18.83
2022-12-20T14:48:06.742Z,16.90
2022-12-20T14:50:37.047Z,18.13
2022-12-20T14:53:04.957Z,17.40
2022-12-20T14:55:39.406Z,18.48
2022-12-20T14:58:23.782Z,18.08
2022-12-20T15:01:04.035Z,19.42
2022-12-20T15:03:31.346Z,17.98
2022-12-20T15:06:00.287Z,17.95
2022-12-20T15:08:34.246Z,17.83
2022-12-20T15:11:15.407Z,18.70
2022-12-20T15:13:52.684Z,18.58
2022-12-20T15:16:26.182Z,16.75
2022-12-20T15:18:56.044Z,18.25
2022-12-20T15:21:43.032Z,16.83
2022-12-20T15:24:18.778Z,18.38
2022-12-20T15:26:46.331Z,16.77
2022-12-20T15:29:19.066Z,18.10
2022-12-20T15:31:47.682Z,16.92
2022-12-20T15:34:38.041Z,17.60
2022-12-20T15:37:06.616Z,18.25
2022-12-20T15:39:34.015Z,18.83
2022-12-20T15:42:04.498Z,17.23
2022-12-20T15:44:33.457Z,18.92
2022-12-20T15:47:00.549Z,20.15
2022-12-20T15:49:32.586Z,18.10
2022-12-20T15:52:00.143Z,19.77
2022-12-20T15:54:30.219Z,19.77
2022-12-20T15:57:00.000Z,17.60
2022-12-20T16:02:29.195Z,18.73
2022-12-20T16:04:56.597Z,19.67
2022-12-20T16:07:24.229Z,19.52
2022-12-20T16:09:51.429Z,19.48
2022-12-20T16:12:28.258Z,19.38
2022-12-20T16:14:55.449Z,19.10
2022-12-20T16:17:22.573Z,17.95
2022-12-20T16:19:50.756Z,17.05
2022-12-20T16:22:20.604Z,18.58
2022-12-20T16:24:48.060Z,18.02
2022-12-20T16:27:15.239Z,18.33
2022-12-20T16:29:42.343Z,18.33
2022-12-20T16:32:16.478Z,18.50
2022-12-20T16:34:43.875Z,18.55
2022-12-20T16:37:12.163Z,18.08
2022-12-20T16:39:39.900Z,19.27
2022-12-20T16:42:18.600Z,18.42
2022-12-20T16:44:47.863Z,20.17
2022-12-20T16:47:15.259Z,19.65
2022-12-20T16:49:51.300Z,19.92
2022-12-20T16:52:20.196Z,18.30
2022-12-20T16:54:47.405Z,19.20
2022-12-20T16:57:14.438Z,20.48
2022-12-20T16:59:41.588Z,20.83
2022-12-20T17:02:24.696Z,21.75
2022-12-20T17:04:51.874Z,20.90
2022-12-20T17:07:21.976Z,21.80
2022-12-20T17:09:49.131Z,21.73
2022-12-20T17:12:18.269Z,21.42
2022-12-20T17:14:45.388Z,21.42
2022-12-20T17:17:12.721Z,22.60
2022-12-20T17:19:40.266Z,20.75
2022-12-20T17:22:25.383Z,21.77
2022-12-20T17:24:52.707Z,21.20
2022-12-20T17:27:19.805Z,21.48
2022-12-20T17:29:46.852Z,21.67
2022-12-20T17:32:21.277Z,21.40
2022-12-20T17:34:48.744Z,22.40
2022-12-20T17:37:16.100Z,22.13
2022-12-20T17:39:43.139Z,22.77
2022-12-20T17:42:13.573Z,21.30
2022-12-20T17:47:07.778Z,21.35
2022-12-20T17:49:34.879Z,22.55
2022-12-20T17:52:02.233Z,20.15
2022-12-20T17:54:35.132Z,19.73
2022-12-20T17:57:05.984Z,20.10
2022-12-20T17:59:33.129Z,22.35
2022-12-20T18:02:00.361Z,20.60
2022-12-20T18:04:28.224Z,20.08
2022-12-20T18:06:55.563Z,19.60
2022-12-20T18:09:22.835Z,18.20
2022-12-20T18:11:49.961Z,18.63
2022-12-20T18:14:17.600Z,18.00
2022-12-20T18:16:44.778Z,18.90
2022-12-20T18:19:17.298Z,17.77
2022-12-20T18:21:45.211Z,17.95
2022-12-20T18:24:14.360Z,17.60
2022-12-20T18:26:42.032Z,17.85
2022-12-20T18:29:10.925Z,19.10
2022-12-20T18:31:38.817Z,18.52
2022-12-20T18:34:06.258Z,18.33
2022-12-20T18:36:35.741Z,18.35
2022-12-20T18:39:05.431Z,18.80
2022-12-20T18:41:33.250Z,19.50
2022-12-20T18:44:03.565Z,18.20
2022-12-20T18:46:31.032Z,17.95
2022-12-20T18:48:59.756Z,19.40
2022-12-20T18:51:29.835Z,17.85
2022-12-20T18:53:58.392Z,18.17
2022-12-20T18:56:31.293Z,17.20
2022-12-20T18:59:06.214Z,17.63
2022-12-20T19:01:38.504Z,18.40
2022-12-20T19:04:07.458Z,17.38
2022-12-20T19:06:35.491Z,17.42
2022-12-20T19:09:04.484Z,17.58
2022-12-20T19:11:31.951Z,18.38
2022-12-20T19:13:59.000Z,16.38
2022-12-20T19:16:29.609Z,16.10
2022-12-20T19:18:56.693Z,16.70
2022-12-20T19:21:27.039Z,16.65
2022-12-20T19:23:57.019Z,17.70
2022-12-20T19:26:27.432Z,16.67
2022-12-20T19:31:31.799Z,17.38
2022-12-20T19:34:05.744Z,15.70
2022-12-20T19:36:38.081Z,16.13
2022-12-20T19:39:07.184Z,16.00
2022-12-20T19:41:35.978Z,17.90
2022-12-20T19:44:04.655Z,17.88
2022-12-20T19:46:31.965Z,17.33
2022-12-20T19:49:00.213Z,16.83
2022-12-20T19:51:28.451Z,17.85
2022-12-20T19:53:57.392Z,15.98
2022-12-20T19:56:28.382Z,16.55
2022-12-20T19:58:59.193Z,16.38
2022-12-20T20:01:27.779Z,16.15
2022-12-20T20:03:57.628Z,15.68
2022-12-20T20:06:25.733Z,15.30
2022-12-20T20:08:53.579Z,16.00
2022-12-20T20:11:21.270Z,16.38
2022-12-20T20:13:48.686Z,15.80
2022-12-20T20:16:21.882Z,17.27
2022-12-20T20:18:49.918Z,15.95
2022-12-20T20:21:21.695Z,14.75
2022-12-20T20:23:50.934Z,15.32
2022-12-20T20:26:22.467Z,15.82
2022-12-20T20:28:50.582Z,15.02
2022-12-20T20:31:19.255Z,15.30
2022-12-20T20:33:46.789Z,15.18
2022-12-20T20:36:16.113Z,15.57
2022-12-20T20:38:43.533Z,15.88
2022-12-20T20:41:11.346Z,16.17
2022-12-20T20:43:38.579Z,14.77
2022-12-20T20:46:08.080Z,14.32
2022-12-20T20:48:35.854Z,15.93
2022-12-20T20:51:03.354Z,14.85
2022-12-20T20:53:34.253Z,14.18
2022-12-20T20:56:03.923Z,14.30
2022-12-20T20:58:31.763Z,15.25
2022-12-20T21:01:00.825Z,14.50
2022-12-20T21:03:30.008Z,14.65
2022-12-20T21:06:34.929Z,15.05
2022-12-20T21:08:44.922Z,14.55
2022-12-20T21:11:12.907Z,14.10
2022-12-20T21:13:40.432Z,14.85
2022-12-20T21:16:13.466Z,15.38
2022-12-20T21:18:40.956Z,15.02
2022-12-20T21:21:11.905Z,13.65
2022-12-20T21:23:43.483Z,14.27
2022-12-20T21:26:10.529Z,14.55
2022-12-20T21:28:37.549Z,14.43
2022-12-20T21:31:06.919Z,14.57
2022-12-20T21:33:34.049Z,14.57
2022-12-20T21:36:04.054Z,14.48
2022-12-20T21:38:31.544Z,13.98
2022-12-20T21:41:11.958Z,13.82
2022-12-20T21:43:39.456Z,12.45
2022-12-20T21:46:11.451Z,13.38
2022-12-20T21:48:40.000Z,13.48
2022-12-20T21:51:11.506Z,13.93
2022-12-20T21:53:50.375Z,14.38
2022-12-20T21:56:19.108Z,14.10
2022-12-20T21:58:46.954Z,13.32
2022-12-20T22:01:16.202Z,14.75
2022-12-20T22:03:44.595Z,14.00
2022-12-20T22:06:12.460Z,14.10
2022-12-20T22:08:39.568Z,13.93
2022-12-20T22:11:10.786Z,13.98
2022-12-20T22:13:41.517Z,14.25
2022-12-20T22:16:15.604Z,13.18
2022-12-20T22:18:43.794Z,14.40
2022-12-20T22:21:13.144Z,14.82
2022-12-20T22:23:41.375Z,14.65
2022-12-20T22:26:15.435Z,12.70
2022-12-20T22:28:54.797Z,13.45
2022-12-20T22:31:22.103Z,14.07
2022-12-20T22:33:49.607Z,13.98
2022-12-20T22:36:16.948Z,14.73
2022-12-20T22:38:44.889Z,14.20
2022-12-20T22:41:17.496Z,13.27
2022-12-20T22:43:45.988Z,12.57
2022-12-20T22:46:14.548Z,13.93
2022-12-20T22:48:42.419Z,14.20
2022-12-20T22:51:12.778Z,14.45
2022-12-20T22:53:40.395Z,13.45
2022-12-20T22:56:08.304Z,14.98
2022-12-20T22:58:36.032Z,12.80
2022-12-20T23:01:05.959Z,13.25
2022-12-20T23:03:33.144Z,13.90
2022-12-20T23:06:02.340Z,13.48
2022-12-20T23:08:31.684Z,13.52
2022-12-20T23:11:18.649Z,14.18
2022-12-20T23:14:05.882Z,14.15
2022-12-20T23:16:33.041Z,12.65
2022-12-20T23:19:02.052Z,13.30
2022-12-20T23:21:49.506Z,13.65
2022-12-20T23:24:16.678Z,12.90
2022-12-20T23:26:44.180Z,13.85
2022-12-20T23:29:11.899Z,13.23
2022-12-20T23:31:39.349Z,13.85
2022-12-20T23:34:07.138Z,13.50
2022-12-20T23:36:34.401Z,13.98
2022-12-20T23:39:02.020Z,14.98
2022-12-20T23:41:29.504Z,13.63
2022-12-20T23:43:56.789Z,14.00
2022-12-20T23:46:24.531Z,13.20
2022-12-20T23:48:52.829Z,12.98
2022-12-20T23:51:21.787Z,14.05
2022-12-20T23:53:51.696Z,12.75
2022-12-20T23:56:21.131Z,14.35
2022-12-20T23:58:54.076Z,13.68
